Windsor, MA (01270)

6:06 AM EST on January 27, 2015 (GMT -0500)
Windsor Center Hill | Change Station
CLOSE
Current Station
Personal Weather Station
Location: Windsor, MA
Elevation: 2165 ft
Nearby Weather Stations
Active Advisory: Winter Storm Warning Active Notice: Public Information Statement

Elev 2165 ft 42.50 °N, 73.07 °W | Updated 4 minutes ago

Snow
Snow
12.3 °F
Feels Like 3 °F
N
6.0
Wind Variable Wind from East

Today
High -- | Low -- °F
--% Chance of Precip.
Yesterday
High -- | Low -- °F
Precip. -- in
7:11 AM 4:59 PM
First Quarter, 53% visible
Pressure 29.73 in
Visibility 1.5 miles
Clouds Overcast 1600 ft
Windchill 3 °F
Dew Point 8 °F
Humidity 83%
Rainfall 0.00 in
Snow Depth Not available.
UV 0 out of 12
Pollen .10 out of 12
Air Quality Not available.
Flu Activity Not available.
METAR KPSF 271054Z AUTO 01008KT 1 1/2SM -SN BR OVC016 M09/M12 A2966 RMK AO2 SLP066 P0002 T10941117

More Conditions Fewer Conditions

Pressure 29.73 in
Visibility 1.5 miles
Clouds Overcast 1600 ft
Windchill 3 °F
Dew Point 8 °F
Humidity 83%
Rainfall 0.00 in
Snow Depth Not available.
UV 0 out of 12
Pollen .10 out of 12
Air Quality Not available.
Flu Activity Not available.
METAR KPSF 271054Z AUTO 01008KT 1 1/2SM -SN BR OVC016 M09/M12 A2966 RMK AO2 SLP066 P0002 T10941117

More Conditions Fewer Conditions

10-Day Weather Forecast

Almanac

Astronomy

Jan. 27, 2015 Rise Set
Actual Time
Civil Twilight
Nautical Twilight
Astronomical Twilight
Moon
Length of Visible Light
Length of Day
Tomorrow will be .
, % of the Moon is Illuminated

Today's Extremes

State Highs State Lows

Community

WunderPhotos

Upload Photos

1,790,564 photos uploaded!

WunderBlogs® & News

Nearby

Air Quality

  Air Quality AQ Index Pollutant
Not available.

Snow Depth

Station Depth Elevation

Earthquake Activity

City Distance Mag. Time & Date
Minimum magnitude displayed is 2.5.

Coastal Water Temperatures

Place Temperature

Nearby Weather Stations